createdAt,value
2019-04-07T00:00:08.948Z,7.00
2019-04-07T00:02:38.474Z,6.90
2019-04-07T00:05:11.901Z,6.90
2019-04-07T00:07:38.004Z,6.90
2019-04-07T00:10:08.729Z,6.80
2019-04-07T00:12:37.501Z,6.80
2019-04-07T00:15:07.066Z,6.70
2019-04-07T00:17:36.209Z,6.70
2019-04-07T00:20:07.228Z,6.70
2019-04-07T00:22:36.084Z,6.60
2019-04-07T00:25:05.262Z,6.50
2019-04-07T00:27:34.155Z,6.50
2019-04-07T00:30:02.802Z,6.50
2019-04-07T00:32:32.814Z,6.40
2019-04-07T00:35:01.505Z,6.40
2019-04-07T00:37:31.077Z,6.40
2019-04-07T00:39:59.998Z,6.40
2019-04-07T00:42:29.179Z,6.30
2019-04-07T00:44:57.868Z,6.30
2019-04-07T00:47:26.685Z,6.40
2019-04-07T00:49:55.591Z,6.40
2019-04-07T00:52:25.471Z,6.40
2019-04-07T00:54:54.591Z,6.40
2019-04-07T00:57:23.285Z,6.40
2019-04-07T00:59:51.980Z,6.40
2019-04-07T01:02:21.231Z,6.50
2019-04-07T01:04:50.604Z,6.50
2019-04-07T01:07:19.393Z,6.60
2019-04-07T01:09:48.107Z,6.60
2019-04-07T01:12:16.801Z,6.70
2019-04-07T01:14:45.459Z,6.70
2019-04-07T01:17:14.876Z,6.80
2019-04-07T01:19:44.217Z,6.90
2019-04-07T01:22:12.847Z,7.00
2019-04-07T01:24:41.777Z,7.00
2019-04-07T01:27:10.507Z,7.10
2019-04-07T01:29:39.942Z,7.10
2019-04-07T01:32:08.855Z,7.20
2019-04-07T01:34:37.546Z,7.20
2019-04-07T01:37:06.285Z,7.20
2019-04-07T01:39:35.066Z,7.20
2019-04-07T01:42:05.820Z,7.20
2019-04-07T01:44:39.769Z,7.20
2019-04-07T01:47:10.053Z,7.30
2019-04-07T01:49:40.330Z,7.20
2019-04-07T01:52:26.256Z,7.20
2019-04-07T01:55:02.730Z,7.20
2019-04-07T01:57:39.797Z,7.20
2019-04-07T02:00:26.559Z,7.30
2019-04-07T02:02:57.156Z,7.20
2019-04-07T02:05:44.298Z,7.20
2019-04-07T02:08:14.760Z,7.20
2019-04-07T02:11:02.502Z,7.20
2019-04-07T02:13:42.868Z,7.20
2019-04-07T02:16:13.151Z,7.00
2019-04-07T02:18:58.875Z,6.90
2019-04-07T02:21:29.586Z,6.90
2019-04-07T02:24:14.773Z,6.80
2019-04-07T02:26:45.585Z,6.80
2019-04-07T02:29:22.136Z,6.70
2019-04-07T02:32:01.562Z,6.70
2019-04-07T02:34:38.074Z,6.80
2019-04-07T02:37:14.541Z,6.80
2019-04-07T02:39:50.759Z,6.70
2019-04-07T02:42:27.199Z,6.70
2019-04-07T02:44:57.526Z,6.60
2019-04-07T02:47:34.062Z,6.50
2019-04-07T02:50:14.077Z,6.50
2019-04-07T02:52:50.463Z,6.40
2019-04-07T02:55:33.541Z,6.30
2019-04-07T02:58:04.513Z,6.30
2019-04-07T03:00:41.391Z,6.30
2019-04-07T03:03:20.862Z,6.30
2019-04-07T03:05:56.833Z,6.30
2019-04-07T03:08:30.220Z,6.30
2019-04-07T03:11:12.445Z,6.30
2019-04-07T03:13:58.991Z,6.30
2019-04-07T03:16:32.118Z,6.30
2019-04-07T03:19:02.465Z,6.20
2019-04-07T03:21:33.076Z,6.10
2019-04-07T03:24:19.571Z,6.00
2019-04-07T03:27:08.155Z,5.90
2019-04-07T03:29:41.732Z,5.80
2019-04-07T03:32:16.459Z,5.70
2019-04-07T03:35:00.176Z,5.60
2019-04-07T03:37:44.792Z,5.50
2019-04-07T03:40:20.128Z,5.40
2019-04-07T03:42:53.111Z,5.30
2019-04-07T03:45:26.565Z,5.20
2019-04-07T03:48:02.737Z,5.20
2019-04-07T03:50:33.357Z,5.10
2019-04-07T03:53:20.233Z,5.10
2019-04-07T03:55:51.306Z,5.00
2019-04-07T03:58:34.363Z,4.90
2019-04-07T04:01:06.659Z,4.90
2019-04-07T04:03:46.081Z,4.80
2019-04-07T04:06:19.416Z,4.70
2019-04-07T04:09:02.203Z,4.70
2019-04-07T04:14:32.018Z,4.60
2019-04-07T04:17:00.818Z,4.50
2019-04-07T04:19:30.188Z,4.50
2019-04-07T04:21:59.003Z,4.50
2019-04-07T04:24:28.411Z,4.50
2019-04-07T04:26:57.316Z,4.50
2019-04-07T04:29:26.528Z,4.40
2019-04-07T04:31:55.690Z,4.40
2019-04-07T04:34:25.121Z,4.40
2019-04-07T04:36:54.509Z,4.40
2019-04-07T04:39:23.288Z,4.40
2019-04-07T04:41:52.092Z,4.30
2019-04-07T04:44:21.869Z,4.40
2019-04-07T04:46:51.037Z,4.40
2019-04-07T04:49:20.003Z,4.30
2019-04-07T04:51:50.127Z,4.40
2019-04-07T04:54:19.359Z,4.40
2019-04-07T04:56:48.286Z,4.30
2019-04-07T04:59:16.961Z,4.30
2019-04-07T05:01:45.649Z,4.30
2019-04-07T05:04:15.111Z,4.30
2019-04-07T05:06:44.567Z,4.40
2019-04-07T05:09:13.391Z,4.40
2019-04-07T05:11:42.755Z,4.50
2019-04-07T05:14:11.669Z,4.50
2019-04-07T05:16:40.355Z,4.50
2019-04-07T05:19:09.744Z,4.60
2019-04-07T05:21:38.545Z,4.60
2019-04-07T05:24:07.234Z,4.60
2019-04-07T05:26:36.485Z,4.60
2019-04-07T05:29:05.930Z,4.60
2019-04-07T05:31:34.778Z,4.60
2019-04-07T05:34:03.480Z,4.60
2019-04-07T05:36:32.501Z,4.70
2019-04-07T05:39:01.236Z,4.70
2019-04-07T05:41:30.463Z,4.70
2019-04-07T05:43:59.863Z,4.80
2019-04-07T05:46:28.526Z,4.80
2019-04-07T05:48:57.571Z,4.90
2019-04-07T05:51:29.934Z,4.90
2019-04-07T05:53:57.083Z,5.00
2019-04-07T05:56:28.088Z,5.10
2019-04-07T05:58:56.069Z,5.20
2019-04-07T06:01:24.871Z,5.30
2019-04-07T06:03:54.465Z,5.40
2019-04-07T06:06:23.193Z,5.50
2019-04-07T06:08:51.906Z,5.50
2019-04-07T06:11:20.584Z,5.60
2019-04-07T06:13:50.378Z,5.70
2019-04-07T06:16:21.017Z,5.70
2019-04-07T06:18:50.139Z,5.80
2019-04-07T06:21:18.906Z,5.90
2019-04-07T06:23:47.637Z,5.90
2019-04-07T06:26:17.282Z,6.00
2019-04-07T06:28:51.283Z,6.00
2019-04-07T06:31:17.313Z,6.10
2019-04-07T06:33:46.807Z,6.20
2019-04-07T06:36:19.438Z,6.20
2019-04-07T06:38:51.236Z,6.30
2019-04-07T06:41:16.432Z,6.30
2019-04-07T06:43:45.188Z,6.30
2019-04-07T06:46:16.176Z,6.40
2019-04-07T06:48:58.513Z,6.50
2019-04-07T06:51:30.910Z,6.50
2019-04-07T06:54:21.625Z,6.60
2019-04-07T06:56:50.017Z,6.60
2019-04-07T06:59:23.364Z,6.60
2019-04-07T07:02:10.357Z,6.60
2019-04-07T07:04:43.586Z,6.70
2019-04-07T07:07:28.134Z,6.70
2019-04-07T07:10:00.659Z,6.80
2019-04-07T07:12:33.542Z,6.80
2019-04-07T07:15:21.162Z,6.80
2019-04-07T07:17:59.309Z,6.90
2019-04-07T07:20:31.672Z,6.90
2019-04-07T07:23:12.198Z,7.00
2019-04-07T07:25:38.505Z,7.00
2019-04-07T07:28:07.584Z,7.10
2019-04-07T07:30:37.577Z,7.20
2019-04-07T07:33:08.846Z,7.20
2019-04-07T07:35:36.543Z,7.20
2019-04-07T07:38:05.934Z,7.30
2019-04-07T07:40:35.112Z,7.40
2019-04-07T07:43:05.484Z,7.40
2019-04-07T07:45:34.473Z,7.50
2019-04-07T07:48:03.192Z,7.50
2019-04-07T07:50:31.928Z,7.60
2019-04-07T07:53:01.378Z,7.70
2019-04-07T07:55:33.729Z,7.70
2019-04-07T07:58:01.048Z,7.80
2019-04-07T08:00:30.014Z,7.90
2019-04-07T08:02:59.191Z,7.90
2019-04-07T08:05:31.770Z,7.90
2019-04-07T08:07:58.436Z,8.00
2019-04-07T08:10:27.644Z,8.10
2019-04-07T08:12:56.442Z,8.10
2019-04-07T08:15:29.745Z,8.20
2019-04-07T08:17:56.288Z,8.30
2019-04-07T08:20:25.064Z,8.30
2019-04-07T08:22:54.003Z,8.30
2019-04-07T08:25:24.763Z,8.40
2019-04-07T08:27:53.170Z,8.40
2019-04-07T08:30:21.859Z,8.50
2019-04-07T08:32:50.549Z,8.50
2019-04-07T08:35:19.775Z,8.60
2019-04-07T08:37:49.193Z,8.60
2019-04-07T08:40:18.790Z,8.60
2019-04-07T08:42:49.073Z,8.70
2019-04-07T08:45:18.923Z,8.70
2019-04-07T08:47:50.024Z,8.80
2019-04-07T08:50:20.810Z,8.80
2019-04-07T08:52:48.957Z,8.90
2019-04-07T08:55:20.075Z,8.90
2019-04-07T08:57:48.047Z,9.00
2019-04-07T09:00:21.442Z,9.00
2019-04-07T09:03:00.223Z,9.10
2019-04-07T09:05:25.595Z,9.10
2019-04-07T09:07:51.785Z,9.10
2019-04-07T09:10:22.296Z,9.20
2019-04-07T09:12:51.051Z,9.20
2019-04-07T09:15:21.444Z,9.20
2019-04-07T09:17:55.507Z,9.30
2019-04-07T09:20:40.303Z,9.40
2019-04-07T09:23:19.040Z,9.50
2019-04-07T09:26:04.442Z,9.50
2019-04-07T09:28:47.484Z,9.60
2019-04-07T09:31:36.415Z,9.60
2019-04-07T09:34:23.102Z,9.70
2019-04-07T09:37:00.227Z,9.70
2019-04-07T09:39:52.809Z,9.70
2019-04-07T09:42:25.690Z,9.70
2019-04-07T09:45:02.078Z,9.80
2019-04-07T09:47:32.605Z,9.80
2019-04-07T09:50:03.581Z,9.90
2019-04-07T09:52:45.123Z,10.00
2019-04-07T09:55:32.070Z,10.00
2019-04-07T09:58:07.966Z,10.00
2019-04-07T10:00:39.899Z,10.10
2019-04-07T10:03:15.164Z,10.20
2019-04-07T10:05:48.488Z,10.20
2019-04-07T10:08:33.572Z,10.30
2019-04-07T10:11:09.717Z,10.30
2019-04-07T10:13:51.985Z,10.40
2019-04-07T10:16:22.294Z,10.50
2019-04-07T10:19:01.959Z,10.50
2019-04-07T10:21:41.761Z,10.60
2019-04-07T10:24:29.034Z,10.60
2019-04-07T10:27:02.368Z,10.60
2019-04-07T10:29:33.083Z,10.70
2019-04-07T10:32:06.729Z,10.70
2019-04-07T10:34:37.478Z,10.80
2019-04-07T10:37:19.752Z,10.80
2019-04-07T10:39:52.730Z,10.80
2019-04-07T10:42:29.319Z,10.80
2019-04-07T10:45:12.028Z,10.80
2019-04-07T10:47:46.022Z,10.80
2019-04-07T10:50:20.005Z,10.90
2019-04-07T10:52:53.533Z,10.90
2019-04-07T10:55:29.279Z,11.00
2019-04-07T10:58:11.622Z,11.10
2019-04-07T11:00:50.652Z,11.10
2019-04-07T11:03:29.482Z,11.10
2019-04-07T11:06:15.008Z,11.20
2019-04-07T11:08:55.461Z,11.20
2019-04-07T11:11:43.691Z,11.30
2019-04-07T11:14:14.218Z,11.30
2019-04-07T11:16:47.442Z,11.40
2019-04-07T11:19:28.407Z,11.40
2019-04-07T11:21:58.707Z,11.50
2019-04-07T11:24:35.179Z,11.60
2019-04-07T11:27:09.150Z,11.60
2019-04-07T11:29:39.738Z,11.70
2019-04-07T11:32:19.577Z,11.70
2019-04-07T11:34:55.977Z,11.80
2019-04-07T11:37:35.344Z,11.80
2019-04-07T11:40:13.155Z,11.90
2019-04-07T11:42:46.462Z,11.90
2019-04-07T11:45:31.497Z,12.00
2019-04-07T11:48:01.753Z,12.00
2019-04-07T11:50:38.141Z,12.00
2019-04-07T11:53:11.166Z,12.00
2019-04-07T11:55:44.271Z,12.00
2019-04-07T11:58:30.884Z,12.00
2019-04-07T12:00:55.443Z,12.00
2019-04-07T12:03:38.705Z,12.10
2019-04-07T12:06:14.367Z,12.20
2019-04-07T12:08:50.037Z,12.20
2019-04-07T12:11:26.232Z,12.30
2019-04-07T12:13:59.775Z,12.40
2019-04-07T12:16:39.096Z,12.40
2019-04-07T12:19:27.902Z,12.50
2019-04-07T12:21:58.433Z,12.60
2019-04-07T12:24:38.024Z,12.60
2019-04-07T12:27:10.838Z,12.60
2019-04-07T12:29:44.548Z,12.60
2019-04-07T12:32:30.310Z,12.60
2019-04-07T12:35:09.703Z,12.70
2019-04-07T12:37:43.745Z,12.70
2019-04-07T12:40:15.239Z,12.80
2019-04-07T12:43:04.562Z,12.80
2019-04-07T12:45:44.935Z,12.80
2019-04-07T12:48:15.677Z,12.90
2019-04-07T12:50:55.231Z,12.80
2019-04-07T12:53:32.118Z,12.80
2019-04-07T12:56:01.900Z,12.90
2019-04-07T12:58:32.367Z,12.90
2019-04-07T13:01:09.602Z,12.90
2019-04-07T13:03:40.821Z,13.00
2019-04-07T13:06:27.663Z,13.00
2019-04-07T13:09:00.762Z,13.10
2019-04-07T13:11:38.470Z,13.20
2019-04-07T13:14:23.769Z,13.20
2019-04-07T13:17:11.605Z,13.20
2019-04-07T13:19:58.798Z,13.20
2019-04-07T13:22:36.404Z,13.10
2019-04-07T13:25:24.249Z,13.10
2019-04-07T13:28:08.174Z,13.00
2019-04-07T13:30:45.596Z,13.00
2019-04-07T13:33:32.984Z,12.90
2019-04-07T13:36:06.173Z,12.90
2019-04-07T13:38:43.050Z,13.00
2019-04-07T13:41:38.748Z,12.90
2019-04-07T13:44:05.677Z,12.90
2019-04-07T13:46:37.654Z,12.90
2019-04-07T13:49:27.398Z,12.80
2019-04-07T13:51:59.524Z,12.80
2019-04-07T13:54:39.393Z,12.80
2019-04-07T13:57:26.289Z,12.80
2019-04-07T13:59:59.023Z,12.80
2019-04-07T14:02:45.616Z,12.80
2019-04-07T14:05:18.913Z,12.70
2019-04-07T14:07:55.225Z,12.80
2019-04-07T14:10:35.649Z,12.80
2019-04-07T14:13:07.724Z,12.80
2019-04-07T14:15:49.732Z,12.90
2019-04-07T14:18:20.228Z,12.90
2019-04-07T14:20:56.222Z,13.00
2019-04-07T14:23:29.775Z,13.00
2019-04-07T14:26:06.728Z,13.00
2019-04-07T14:28:40.187Z,13.00
2019-04-07T14:31:10.837Z,13.00
2019-04-07T14:33:57.825Z,13.10
2019-04-07T14:36:31.535Z,13.10
2019-04-07T14:39:13.991Z,13.10
2019-04-07T14:42:04.927Z,13.20
2019-04-07T14:44:35.859Z,13.20
2019-04-07T14:47:12.778Z,13.20
2019-04-07T14:49:51.550Z,13.20
2019-04-07T14:52:30.712Z,13.10
2019-04-07T14:55:18.399Z,13.10
2019-04-07T14:58:04.509Z,13.10
2019-04-07T15:00:40.720Z,13.20
2019-04-07T15:03:09.454Z,13.20
2019-04-07T15:05:39.669Z,13.30
2019-04-07T15:08:10.592Z,13.40
2019-04-07T15:10:47.319Z,13.40
2019-04-07T15:13:29.591Z,13.50
2019-04-07T15:15:58.479Z,13.50
2019-04-07T15:18:27.599Z,13.60
2019-04-07T15:20:57.217Z,13.80
2019-04-07T15:23:29.475Z,13.90
2019-04-07T15:25:56.828Z,14.20
2019-04-07T15:28:29.742Z,14.40
2019-04-07T15:30:56.828Z,14.70
2019-04-07T15:33:25.960Z,15.00
2019-04-07T15:35:54.923Z,15.30
2019-04-07T15:38:26.993Z,15.60
2019-04-07T15:40:54.045Z,15.80
2019-04-07T15:43:22.824Z,16.00
2019-04-07T15:45:52.180Z,16.20
2019-04-07T15:48:24.169Z,16.40
2019-04-07T15:50:51.783Z,16.60
2019-04-07T15:53:20.931Z,16.80
2019-04-07T15:55:58.492Z,16.90
2019-04-07T15:58:20.506Z,17.10
2019-04-07T16:00:49.301Z,17.30
2019-04-07T16:03:18.108Z,17.40
2019-04-07T16:05:46.841Z,17.50
2019-04-07T16:08:16.107Z,17.60
2019-04-07T16:10:45.349Z,17.70
2019-04-07T16:13:14.072Z,17.90
2019-04-07T16:15:44.904Z,18.00
2019-04-07T16:18:13.122Z,18.00
2019-04-07T16:20:42.080Z,18.10
2019-04-07T16:23:10.897Z,18.00
2019-04-07T16:25:40.844Z,17.80
2019-04-07T16:28:13.273Z,17.60
2019-04-07T16:30:40.792Z,17.50
2019-04-07T16:33:09.978Z,17.30
2019-04-07T16:35:39.726Z,17.20
2019-04-07T16:38:09.451Z,17.10
2019-04-07T16:40:40.499Z,16.90
2019-04-07T16:43:14.484Z,16.70
2019-04-07T16:45:38.891Z,16.40
2019-04-07T16:48:07.827Z,16.20
2019-04-07T16:50:38.110Z,15.90
2019-04-07T16:53:08.843Z,15.60
2019-04-07T16:55:40.156Z,15.40
2019-04-07T16:58:09.317Z,15.10
2019-04-07T17:00:39.715Z,14.90
2019-04-07T17:03:09.713Z,14.70
2019-04-07T17:05:39.550Z,14.50
2019-04-07T17:08:08.907Z,14.30
2019-04-07T17:10:37.647Z,14.20
2019-04-07T17:13:16.998Z,14.00
2019-04-07T17:15:39.541Z,13.80
2019-04-07T17:18:08.928Z,13.60
2019-04-07T17:20:39.002Z,13.40
2019-04-07T17:23:07.866Z,13.30
2019-04-07T17:25:37.531Z,13.10
2019-04-07T17:28:06.519Z,13.00
2019-04-07T17:30:38.035Z,12.80
2019-04-07T17:33:06.562Z,12.60
2019-04-07T17:35:35.869Z,12.50
2019-04-07T17:38:06.905Z,12.30
2019-04-07T17:40:37.679Z,12.10
2019-04-07T17:43:08.246Z,11.90
2019-04-07T17:45:41.919Z,11.70
2019-04-07T17:48:17.116Z,11.50
2019-04-07T17:51:04.636Z,11.20
2019-04-07T17:53:41.325Z,11.00
2019-04-07T17:56:24.180Z,10.80
2019-04-07T17:58:57.580Z,10.50
2019-04-07T18:01:46.460Z,10.30
2019-04-07T18:04:23.031Z,10.10
2019-04-07T18:06:53.893Z,9.90
2019-04-07T18:09:37.108Z,9.70
2019-04-07T18:12:14.454Z,9.50
2019-04-07T18:14:45.814Z,9.30
2019-04-07T18:17:16.315Z,9.10
2019-04-07T18:19:52.647Z,9.00
2019-04-07T18:22:23.882Z,8.80
2019-04-07T18:25:14.101Z,8.70
2019-04-07T18:28:01.084Z,8.50
2019-04-07T18:30:33.346Z,8.40
2019-04-07T18:33:04.287Z,8.30
2019-04-07T18:35:52.884Z,8.20
2019-04-07T18:38:42.704Z,8.10
2019-04-07T18:41:17.327Z,8.00
2019-04-07T18:44:04.586Z,7.80
2019-04-07T18:46:31.714Z,7.70
2019-04-07T18:49:20.354Z,7.60
2019-04-07T18:51:53.741Z,7.50
2019-04-07T18:54:24.841Z,7.40
2019-04-07T18:57:01.317Z,7.30
2019-04-07T18:59:31.674Z,7.20
2019-04-07T19:02:18.238Z,7.10
2019-04-07T19:04:49.188Z,7.00
2019-04-07T19:07:19.922Z,6.90
2019-04-07T19:10:03.716Z,6.80
2019-04-07T19:12:29.209Z,6.70
2019-04-07T19:15:10.543Z,6.60
2019-04-07T19:17:58.619Z,6.50
2019-04-07T19:20:27.860Z,6.30
2019-04-07T19:23:02.339Z,6.30
2019-04-07T19:25:48.572Z,6.20
2019-04-07T19:28:19.010Z,6.10
2019-04-07T19:31:06.663Z,6.10
2019-04-07T19:33:37.692Z,6.00
2019-04-07T19:36:24.475Z,6.00
2019-04-07T19:39:11.613Z,5.90
2019-04-07T19:42:04.665Z,5.80
2019-04-07T19:44:37.127Z,5.80
2019-04-07T19:47:10.743Z,5.70
2019-04-07T19:49:57.619Z,5.60
2019-04-07T19:52:46.398Z,5.50
2019-04-07T19:55:17.736Z,5.50
2019-04-07T19:58:05.582Z,5.30
2019-04-07T20:00:45.886Z,5.30
2019-04-07T20:03:39.179Z,5.10
2019-04-07T20:06:24.868Z,5.00
2019-04-07T20:09:11.573Z,4.90
2019-04-07T20:12:02.862Z,4.80
2019-04-07T20:14:49.249Z,4.70
2019-04-07T20:17:17.362Z,4.60
2019-04-07T20:19:59.924Z,4.60
2019-04-07T20:22:49.325Z,4.50
2019-04-07T20:25:20.376Z,4.40
2019-04-07T20:27:51.232Z,4.30
2019-04-07T20:30:33.755Z,4.30
2019-04-07T20:33:18.838Z,4.20
2019-04-07T20:35:52.231Z,4.20
2019-04-07T20:38:40.163Z,4.10
2019-04-07T20:41:17.038Z,4.10
2019-04-07T20:44:03.889Z,4.10
2019-04-07T20:46:38.026Z,4.00
2019-04-07T20:49:23.133Z,3.90
2019-04-07T20:51:56.425Z,3.90
2019-04-07T20:54:26.875Z,3.80
2019-04-07T20:57:02.561Z,3.70
2019-04-07T20:59:33.284Z,3.70
2019-04-07T21:02:09.832Z,3.60
2019-04-07T21:04:39.621Z,3.60
2019-04-07T21:07:29.815Z,3.50
2019-04-07T21:10:09.483Z,3.50
2019-04-07T21:12:38.940Z,3.40
2019-04-07T21:15:29.609Z,3.40
2019-04-07T21:18:05.618Z,3.30
2019-04-07T21:20:52.963Z,3.30
2019-04-07T21:23:33.136Z,3.20
2019-04-07T21:26:20.945Z,3.20
2019-04-07T21:28:51.289Z,3.20
2019-04-07T21:31:37.982Z,3.00
2019-04-07T21:34:27.056Z,3.00
2019-04-07T21:37:00.965Z,2.90
2019-04-07T21:39:34.425Z,2.90
2019-04-07T21:42:22.225Z,2.80
2019-04-07T21:45:05.427Z,2.70
2019-04-07T21:47:39.827Z,2.60
2019-04-07T21:50:21.980Z,2.60
2019-04-07T21:53:08.448Z,2.50
2019-04-07T21:55:43.062Z,2.50
2019-04-07T21:58:23.212Z,2.50
2019-04-07T22:00:51.713Z,2.50
2019-04-07T22:53:22.539Z,1.70
2019-04-07T22:55:49.437Z,1.80
2019-04-07T22:58:18.739Z,1.70
2019-04-07T23:00:47.630Z,1.80
2019-04-07T23:03:16.412Z,1.70
2019-04-07T23:05:45.848Z,1.70
2019-04-07T23:08:14.819Z,1.80
2019-04-07T23:10:44.262Z,1.80
2019-04-07T23:13:13.282Z,1.80
2019-04-07T23:15:45.565Z,1.80
2019-04-07T23:18:12.532Z,1.90
2019-04-07T23:20:41.719Z,2.00
2019-04-07T23:23:10.998Z,2.10
2019-04-07T23:25:39.922Z,2.10
2019-04-07T23:28:08.712Z,2.20
2019-04-07T23:30:37.502Z,2.20
2019-04-07T23:33:06.324Z,2.20
2019-04-07T23:35:35.178Z,2.10
2019-04-07T23:38:03.870Z,2.10
2019-04-07T23:40:32.656Z,2.10
2019-04-07T23:43:01.340Z,2.10
2019-04-07T23:45:30.131Z,2.10
2019-04-07T23:47:59.766Z,2.00
2019-04-07T23:50:29.410Z,2.00
2019-04-07T23:53:01.413Z,2.00
2019-04-07T23:55:30.201Z,2.00
2019-04-07T23:57:58.888Z,2.00
